sensor_id;sensor_type;location;lat;lon;timestamp;temperature;humidity
28087;DHT22;15392;48.912;8.380;2023-12-28T00:00:55;9.50;55.70
28087;DHT22;15392;48.912;8.380;2023-12-28T00:03:41;9.50;55.60
28087;DHT22;15392;48.912;8.380;2023-12-28T00:06:30;9.50;55.60
28087;DHT22;15392;48.912;8.380;2023-12-28T00:09:16;9.50;55.50
28087;DHT22;15392;48.912;8.380;2023-12-28T00:12:03;9.50;55.50
28087;DHT22;15392;48.912;8.380;2023-12-28T00:14:53;9.50;55.40
28087;DHT22;15392;48.912;8.380;2023-12-28T00:17:39;9.50;55.40
28087;DHT22;15392;48.912;8.380;2023-12-28T00:20:25;9.50;55.30
28087;DHT22;15392;48.912;8.380;2023-12-28T00:23:11;9.50;55.30
28087;DHT22;15392;48.912;8.380;2023-12-28T00:26:00;9.50;55.40
28087;DHT22;15392;48.912;8.380;2023-12-28T00:28:46;9.50;55.60
28087;DHT22;15392;48.912;8.380;2023-12-28T00:31:33;9.40;55.50
28087;DHT22;15392;48.912;8.380;2023-12-28T00:34:19;9.40;55.40
28087;DHT22;15392;48.912;8.380;2023-12-28T00:37:05;9.50;55.30
28087;DHT22;15392;48.912;8.380;2023-12-28T00:39:51;9.50;55.30
28087;DHT22;15392;48.912;8.380;2023-12-28T00:42:37;9.40;55.30
28087;DHT22;15392;48.912;8.380;2023-12-28T00:45:26;9.40;55.30
28087;DHT22;15392;48.912;8.380;2023-12-28T00:48:12;9.40;55.20
28087;DHT22;15392;48.912;8.380;2023-12-28T00:50:58;9.40;55.20
28087;DHT22;15392;48.912;8.380;2023-12-28T00:53:44;9.40;55.10
28087;DHT22;15392;48.912;8.380;2023-12-28T00:56:30;9.40;55.10
28087;DHT22;15392;48.912;8.380;2023-12-28T00:59:16;9.40;55.20
28087;DHT22;15392;48.912;8.380;2023-12-28T01:02:02;9.30;55.20
28087;DHT22;15392;48.912;8.380;2023-12-28T01:04:49;9.30;55.20
28087;DHT22;15392;48.912;8.380;2023-12-28T01:07:35;9.30;55.20
28087;DHT22;15392;48.912;8.380;2023-12-28T01:10:21;9.30;55.20
28087;DHT22;15392;48.912;8.380;2023-12-28T01:13:07;9.30;55.20
28087;DHT22;15392;48.912;8.380;2023-12-28T01:15:53;9.30;55.20
28087;DHT22;15392;48.912;8.380;2023-12-28T01:18:40;9.30;55.20
28087;DHT22;15392;48.912;8.380;2023-12-28T01:21:26;9.30;55.20
28087;DHT22;15392;48.912;8.380;2023-12-28T01:24:14;9.30;55.20
28087;DHT22;15392;48.912;8.380;2023-12-28T01:27:00;9.30;55.20
28087;DHT22;15392;48.912;8.380;2023-12-28T01:29:46;9.30;55.20
28087;DHT22;15392;48.912;8.380;2023-12-28T01:32:32;9.30;55.20
28087;DHT22;15392;48.912;8.380;2023-12-28T01:35:18;9.30;55.20
28087;DHT22;15392;48.912;8.380;2023-12-28T01:38:04;9.30;55.20
28087;DHT22;15392;48.912;8.380;2023-12-28T01:40:50;9.30;55.30
28087;DHT22;15392;48.912;8.380;2023-12-28T01:43:36;9.30;55.30
28087;DHT22;15392;48.912;8.380;2023-12-28T01:46:22;9.30;55.40
28087;DHT22;15392;48.912;8.380;2023-12-28T01:49:09;9.20;55.30
28087;DHT22;15392;48.912;8.380;2023-12-28T01:51:55;9.30;55.40
28087;DHT22;15392;48.912;8.380;2023-12-28T01:54:41;9.30;55.40
28087;DHT22;15392;48.912;8.380;2023-12-28T01:57:27;9.30;55.40
28087;DHT22;15392;48.912;8.380;2023-12-28T02:00:14;9.40;55.30
28087;DHT22;15392;48.912;8.380;2023-12-28T02:03:00;9.40;55.20
28087;DHT22;15392;48.912;8.380;2023-12-28T02:05:46;9.50;55.20
28087;DHT22;15392;48.912;8.380;2023-12-28T02:08:33;9.50;55.10
28087;DHT22;15392;48.912;8.380;2023-12-28T02:11:19;9.60;55.00
28087;DHT22;15392;48.912;8.380;2023-12-28T02:14:05;9.60;54.90
28087;DHT22;15392;48.912;8.380;2023-12-28T02:17:00;9.70;55.00
28087;DHT22;15392;48.912;8.380;2023-12-28T02:19:51;9.80;55.00
28087;DHT22;15392;48.912;8.380;2023-12-28T02:22:39;9.90;54.90
28087;DHT22;15392;48.912;8.380;2023-12-28T02:25:26;10.00;54.60
28087;DHT22;15392;48.912;8.380;2023-12-28T02:28:12;10.10;54.70
28087;DHT22;15392;48.912;8.380;2023-12-28T02:31:00;10.20;54.80
28087;DHT22;15392;48.912;8.380;2023-12-28T02:34:00;10.40;54.40
28087;DHT22;15392;48.912;8.380;2023-12-28T02:36:56;10.50;54.30
28087;DHT22;15392;48.912;8.380;2023-12-28T02:39:45;10.60;54.30
28087;DHT22;15392;48.912;8.380;2023-12-28T02:42:32;10.70;53.40
28087;DHT22;15392;48.912;8.380;2023-12-28T02:45:18;10.90;53.60
28087;DHT22;15392;48.912;8.380;2023-12-28T02:48:06;11.10;53.40
28087;DHT22;15392;48.912;8.380;2023-12-28T02:50:52;11.20;53.70
28087;DHT22;15392;48.912;8.380;2023-12-28T02:53:38;11.40;53.80
28087;DHT22;15392;48.912;8.380;2023-12-28T02:56:24;11.60;52.60
28087;DHT22;15392;48.912;8.380;2023-12-28T02:59:10;11.80;53.50
28087;DHT22;15392;48.912;8.380;2023-12-28T03:01:56;12.00;53.10
28087;DHT22;15392;48.912;8.380;2023-12-28T03:04:42;12.20;53.10
28087;DHT22;15392;48.912;8.380;2023-12-28T03:07:28;12.30;53.10
28087;DHT22;15392;48.912;8.380;2023-12-28T03:10:14;12.50;52.10
28087;DHT22;15392;48.912;8.380;2023-12-28T03:13:00;12.70;51.80
28087;DHT22;15392;48.912;8.380;2023-12-28T03:15:46;12.90;51.30
28087;DHT22;15392;48.912;8.380;2023-12-28T03:18:32;13.00;51.40
28087;DHT22;15392;48.912;8.380;2023-12-28T03:21:18;13.20;52.10
28087;DHT22;15392;48.912;8.380;2023-12-28T03:24:04;13.40;50.60
28087;DHT22;15392;48.912;8.380;2023-12-28T03:26:51;13.60;50.20
28087;DHT22;15392;48.912;8.380;2023-12-28T03:29:37;13.80;51.60
28087;DHT22;15392;48.912;8.380;2023-12-28T03:32:23;13.90;51.10
28087;DHT22;15392;48.912;8.380;2023-12-28T03:35:09;14.10;51.60
28087;DHT22;15392;48.912;8.380;2023-12-28T03:37:55;14.30;50.20
28087;DHT22;15392;48.912;8.380;2023-12-28T03:40:41;14.40;50.70
28087;DHT22;15392;48.912;8.380;2023-12-28T03:43:27;14.60;50.00
28087;DHT22;15392;48.912;8.380;2023-12-28T03:46:13;14.70;50.10
28087;DHT22;15392;48.912;8.380;2023-12-28T03:48:59;14.80;50.00
28087;DHT22;15392;48.912;8.380;2023-12-28T03:51:46;15.00;49.50
28087;DHT22;15392;48.912;8.380;2023-12-28T03:54:35;15.10;49.10
28087;DHT22;15392;48.912;8.380;2023-12-28T03:57:22;15.20;50.30
28087;DHT22;15392;48.912;8.380;2023-12-28T04:00:08;15.30;50.60
28087;DHT22;15392;48.912;8.380;2023-12-28T04:02:55;15.40;50.70
28087;DHT22;15392;48.912;8.380;2023-12-28T04:05:44;15.50;49.40
28087;DHT22;15392;48.912;8.380;2023-12-28T04:08:30;15.60;50.10
28087;DHT22;15392;48.912;8.380;2023-12-28T04:11:16;15.60;49.40
28087;DHT22;15392;48.912;8.380;2023-12-28T04:14:02;15.70;50.80
28087;DHT22;15392;48.912;8.380;2023-12-28T04:16:48;15.70;49.30
28087;DHT22;15392;48.912;8.380;2023-12-28T04:19:34;15.70;50.00
28087;DHT22;15392;48.912;8.380;2023-12-28T04:22:20;15.80;49.30
28087;DHT22;15392;48.912;8.380;2023-12-28T04:25:06;15.80;49.90
28087;DHT22;15392;48.912;8.380;2023-12-28T04:27:53;15.80;50.70
28087;DHT22;15392;48.912;8.380;2023-12-28T04:30:39;15.80;50.90
28087;DHT22;15392;48.912;8.380;2023-12-28T04:33:24;15.70;51.00
28087;DHT22;15392;48.912;8.380;2023-12-28T04:36:10;15.70;51.30
28087;DHT22;15392;48.912;8.380;2023-12-28T04:38:56;15.70;51.30
28087;DHT22;15392;48.912;8.380;2023-12-28T04:41:42;15.70;51.50
28087;DHT22;15392;48.912;8.380;2023-12-28T04:44:28;15.70;51.80
28087;DHT22;15392;48.912;8.380;2023-12-28T04:47:14;15.60;52.00
28087;DHT22;15392;48.912;8.380;2023-12-28T04:50:00;15.60;52.30
28087;DHT22;15392;48.912;8.380;2023-12-28T04:52:47;15.60;52.60
28087;DHT22;15392;48.912;8.380;2023-12-28T04:55:33;15.50;52.80
28087;DHT22;15392;48.912;8.380;2023-12-28T04:58:19;15.50;53.00
28087;DHT22;15392;48.912;8.380;2023-12-28T05:01:05;15.40;53.20
28087;DHT22;15392;48.912;8.380;2023-12-28T05:03:51;15.30;53.30
28087;DHT22;15392;48.912;8.380;2023-12-28T05:06:37;15.20;53.40
28087;DHT22;15392;48.912;8.380;2023-12-28T05:09:23;15.20;53.60
28087;DHT22;15392;48.912;8.380;2023-12-28T05:12:09;15.10;53.80
28087;DHT22;15392;48.912;8.380;2023-12-28T05:14:55;15.00;53.90
28087;DHT22;15392;48.912;8.380;2023-12-28T05:17:41;14.90;54.10
28087;DHT22;15392;48.912;8.380;2023-12-28T05:20:27;14.90;54.20
28087;DHT22;15392;48.912;8.380;2023-12-28T05:23:13;14.80;54.30
28087;DHT22;15392;48.912;8.380;2023-12-28T05:25:59;14.70;54.20
28087;DHT22;15392;48.912;8.380;2023-12-28T05:28:46;14.70;54.40
28087;DHT22;15392;48.912;8.380;2023-12-28T05:31:32;14.60;55.10
28087;DHT22;15392;48.912;8.380;2023-12-28T05:34:18;14.60;54.60
28087;DHT22;15392;48.912;8.380;2023-12-28T05:37:04;14.50;54.70
28087;DHT22;15392;48.912;8.380;2023-12-28T05:39:50;14.50;54.70
28087;DHT22;15392;48.912;8.380;2023-12-28T05:42:37;14.40;54.80
28087;DHT22;15392;48.912;8.380;2023-12-28T05:45:23;14.40;54.80
28087;DHT22;15392;48.912;8.380;2023-12-28T05:48:09;14.30;54.60
28087;DHT22;15392;48.912;8.380;2023-12-28T05:50:57;14.30;54.80
28087;DHT22;15392;48.912;8.380;2023-12-28T05:53:44;14.30;54.90
28087;DHT22;15392;48.912;8.380;2023-12-28T05:56:30;14.20;54.90
28087;DHT22;15392;48.912;8.380;2023-12-28T05:59:16;14.20;54.80
28087;DHT22;15392;48.912;8.380;2023-12-28T06:02:03;14.20;54.80
28087;DHT22;15392;48.912;8.380;2023-12-28T06:04:49;14.20;54.90
28087;DHT22;15392;48.912;8.380;2023-12-28T06:07:35;14.10;54.90
28087;DHT22;15392;48.912;8.380;2023-12-28T06:10:21;14.10;55.00
28087;DHT22;15392;48.912;8.380;2023-12-28T06:13:09;14.10;55.10
28087;DHT22;15392;48.912;8.380;2023-12-28T06:15:56;14.10;55.70
28087;DHT22;15392;48.912;8.380;2023-12-28T06:18:42;14.00;55.10
28087;DHT22;15392;48.912;8.380;2023-12-28T06:21:28;14.00;55.10
28087;DHT22;15392;48.912;8.380;2023-12-28T06:24:16;14.00;55.20
28087;DHT22;15392;48.912;8.380;2023-12-28T06:27:02;14.00;55.20
28087;DHT22;15392;48.912;8.380;2023-12-28T06:29:48;14.00;55.20
28087;DHT22;15392;48.912;8.380;2023-12-28T06:32:34;14.00;55.20
28087;DHT22;15392;48.912;8.380;2023-12-28T06:35:20;14.00;55.20
28087;DHT22;15392;48.912;8.380;2023-12-28T06:38:06;14.00;55.10
28087;DHT22;15392;48.912;8.380;2023-12-28T06:40:52;14.00;55.10
28087;DHT22;15392;48.912;8.380;2023-12-28T06:43:39;14.00;55.10
28087;DHT22;15392;48.912;8.380;2023-12-28T06:46:27;14.00;55.20
28087;DHT22;15392;48.912;8.380;2023-12-28T06:49:13;14.00;55.20
28087;DHT22;15392;48.912;8.380;2023-12-28T06:51:59;14.00;55.10
28087;DHT22;15392;48.912;8.380;2023-12-28T06:54:45;13.90;54.90
28087;DHT22;15392;48.912;8.380;2023-12-28T06:57:31;13.90;54.70
28087;DHT22;15392;48.912;8.380;2023-12-28T07:00:28;13.90;54.80
28087;DHT22;15392;48.912;8.380;2023-12-28T07:03:14;13.90;55.00
28087;DHT22;15392;48.912;8.380;2023-12-28T07:06:01;13.90;55.10
28087;DHT22;15392;48.912;8.380;2023-12-28T07:08:47;13.90;55.10
28087;DHT22;15392;48.912;8.380;2023-12-28T07:11:33;13.90;55.20
28087;DHT22;15392;48.912;8.380;2023-12-28T07:14:19;13.90;55.30
28087;DHT22;15392;48.912;8.380;2023-12-28T07:17:05;13.90;55.10
28087;DHT22;15392;48.912;8.380;2023-12-28T07:19:52;13.90;55.10
28087;DHT22;15392;48.912;8.380;2023-12-28T07:22:38;13.90;55.30
28087;DHT22;15392;48.912;8.380;2023-12-28T07:25:24;13.80;55.50
28087;DHT22;15392;48.912;8.380;2023-12-28T07:28:10;13.80;55.70
28087;DHT22;15392;48.912;8.380;2023-12-28T07:30:57;13.80;55.90
28087;DHT22;15392;48.912;8.380;2023-12-28T07:33:43;13.80;55.90
28087;DHT22;15392;48.912;8.380;2023-12-28T07:36:29;13.80;56.00
28087;DHT22;15392;48.912;8.380;2023-12-28T07:39:15;13.70;56.20
28087;DHT22;15392;48.912;8.380;2023-12-28T07:42:01;13.70;56.20
28087;DHT22;15392;48.912;8.380;2023-12-28T07:44:48;13.70;56.30
28087;DHT22;15392;48.912;8.380;2023-12-28T07:47:34;13.70;56.40
28087;DHT22;15392;48.912;8.380;2023-12-28T07:50:20;13.70;56.50
28087;DHT22;15392;48.912;8.380;2023-12-28T07:53:06;13.60;56.50
28087;DHT22;15392;48.912;8.380;2023-12-28T07:55:52;13.60;56.40
28087;DHT22;15392;48.912;8.380;2023-12-28T07:58:41;13.60;56.30
28087;DHT22;15392;48.912;8.380;2023-12-28T08:01:31;13.60;56.10
28087;DHT22;15392;48.912;8.380;2023-12-28T08:04:18;13.60;56.00
28087;DHT22;15392;48.912;8.380;2023-12-28T08:07:13;13.50;56.00
28087;DHT22;15392;48.912;8.380;2023-12-28T08:10:00;13.50;56.10
28087;DHT22;15392;48.912;8.380;2023-12-28T08:12:46;13.50;56.10
28087;DHT22;15392;48.912;8.380;2023-12-28T08:15:32;13.40;56.00
28087;DHT22;15392;48.912;8.380;2023-12-28T08:18:20;13.40;55.90
28087;DHT22;15392;48.912;8.380;2023-12-28T08:21:06;13.40;56.00
28087;DHT22;15392;48.912;8.380;2023-12-28T08:23:56;13.40;55.90
28087;DHT22;15392;48.912;8.380;2023-12-28T08:26:43;13.40;56.00
28087;DHT22;15392;48.912;8.380;2023-12-28T08:29:29;13.40;56.00
28087;DHT22;15392;48.912;8.380;2023-12-28T08:32:17;13.40;56.10
28087;DHT22;15392;48.912;8.380;2023-12-28T08:35:03;13.40;56.10
28087;DHT22;15392;48.912;8.380;2023-12-28T08:37:50;13.40;56.00
28087;DHT22;15392;48.912;8.380;2023-12-28T08:40:36;13.40;56.00
28087;DHT22;15392;48.912;8.380;2023-12-28T08:43:24;13.40;56.00
28087;DHT22;15392;48.912;8.380;2023-12-28T08:46:10;13.50;56.00
28087;DHT22;15392;48.912;8.380;2023-12-28T08:48:56;13.50;56.00
28087;DHT22;15392;48.912;8.380;2023-12-28T08:51:42;13.50;55.90
28087;DHT22;15392;48.912;8.380;2023-12-28T08:54:34;13.50;55.90
28087;DHT22;15392;48.912;8.380;2023-12-28T08:57:22;13.60;56.00
28087;DHT22;15392;48.912;8.380;2023-12-28T09:00:15;13.50;55.90
28087;DHT22;15392;48.912;8.380;2023-12-28T09:03:02;13.60;55.80
28087;DHT22;15392;48.912;8.380;2023-12-28T09:05:55;13.60;55.80
28087;DHT22;15392;48.912;8.380;2023-12-28T09:08:42;13.70;55.70
28087;DHT22;15392;48.912;8.380;2023-12-28T09:11:31;13.70;55.70
28087;DHT22;15392;48.912;8.380;2023-12-28T09:14:17;13.70;55.70
28087;DHT22;15392;48.912;8.380;2023-12-28T09:17:06;13.70;55.70
28087;DHT22;15392;48.912;8.380;2023-12-28T09:19:55;13.70;55.90
28087;DHT22;15392;48.912;8.380;2023-12-28T09:22:41;13.80;56.10
28087;DHT22;15392;48.912;8.380;2023-12-28T09:26:17;13.80;56.30
28087;DHT22;15392;48.912;8.380;2023-12-28T09:29:10;13.80;56.40
28087;DHT22;15392;48.912;8.380;2023-12-28T09:31:56;13.80;56.50
28087;DHT22;15392;48.912;8.380;2023-12-28T09:34:42;13.80;56.60
28087;DHT22;15392;48.912;8.380;2023-12-28T09:37:29;13.80;56.70
28087;DHT22;15392;48.912;8.380;2023-12-28T09:40:15;13.80;56.90
28087;DHT22;15392;48.912;8.380;2023-12-28T09:43:13;13.80;57.00
28087;DHT22;15392;48.912;8.380;2023-12-28T09:46:01;13.80;57.20
28087;DHT22;15392;48.912;8.380;2023-12-28T09:48:48;13.80;57.10
28087;DHT22;15392;48.912;8.380;2023-12-28T09:51:34;13.90;57.20
28087;DHT22;15392;48.912;8.380;2023-12-28T09:54:21;13.80;57.30
28087;DHT22;15392;48.912;8.380;2023-12-28T09:57:07;13.80;57.30
28087;DHT22;15392;48.912;8.380;2023-12-28T09:59:54;13.80;57.30
28087;DHT22;15392;48.912;8.380;2023-12-28T10:02:44;13.80;57.30
28087;DHT22;15392;48.912;8.380;2023-12-28T10:05:30;13.80;57.50
28087;DHT22;15392;48.912;8.380;2023-12-28T10:08:16;13.80;57.50
28087;DHT22;15392;48.912;8.380;2023-12-28T10:11:03;13.80;57.50
28087;DHT22;15392;48.912;8.380;2023-12-28T10:13:50;13.80;57.50
28087;DHT22;15392;48.912;8.380;2023-12-28T10:16:40;13.90;57.60
28087;DHT22;15392;48.912;8.380;2023-12-28T10:19:27;13.90;57.70
28087;DHT22;15392;48.912;8.380;2023-12-28T10:22:13;13.90;57.70
28087;DHT22;15392;48.912;8.380;2023-12-28T10:25:01;13.90;57.70
28087;DHT22;15392;48.912;8.380;2023-12-28T10:27:53;13.90;57.80
28087;DHT22;15392;48.912;8.380;2023-12-28T10:30:39;14.00;57.90
28087;DHT22;15392;48.912;8.380;2023-12-28T10:33:28;14.00;57.80
28087;DHT22;15392;48.912;8.380;2023-12-28T10:36:20;14.00;57.80
28087;DHT22;15392;48.912;8.380;2023-12-28T10:39:09;14.10;57.80
28087;DHT22;15392;48.912;8.380;2023-12-28T10:42:00;14.00;57.80
28087;DHT22;15392;48.912;8.380;2023-12-28T10:44:50;14.10;57.80
28087;DHT22;15392;48.912;8.380;2023-12-28T10:47:43;14.10;57.90
28087;DHT22;15392;48.912;8.380;2023-12-28T10:50:42;14.10;58.00
28087;DHT22;15392;48.912;8.380;2023-12-28T10:53:49;14.10;58.10
28087;DHT22;15392;48.912;8.380;2023-12-28T10:56:44;14.10;58.20
28087;DHT22;15392;48.912;8.380;2023-12-28T11:02:19;14.20;58.00
28087;DHT22;15392;48.912;8.380;2023-12-28T11:05:13;14.20;58.00
28087;DHT22;15392;48.912;8.380;2023-12-28T11:08:02;14.20;58.10
28087;DHT22;15392;48.912;8.380;2023-12-28T11:10:50;14.20;58.10
28087;DHT22;15392;48.912;8.380;2023-12-28T11:13:37;14.20;58.10
28087;DHT22;15392;48.912;8.380;2023-12-28T11:16:24;14.30;58.20
28087;DHT22;15392;48.912;8.380;2023-12-28T11:19:12;14.30;58.20
28087;DHT22;15392;48.912;8.380;2023-12-28T11:21:59;14.30;58.20
28087;DHT22;15392;48.912;8.380;2023-12-28T11:24:47;14.30;58.20
28087;DHT22;15392;48.912;8.380;2023-12-28T11:27:37;14.30;58.20
28087;DHT22;15392;48.912;8.380;2023-12-28T11:30:26;14.40;59.00
28087;DHT22;15392;48.912;8.380;2023-12-28T11:33:13;14.40;58.40
28087;DHT22;15392;48.912;8.380;2023-12-28T11:35:59;14.40;58.30
28087;DHT22;15392;48.912;8.380;2023-12-28T11:38:45;14.50;58.30
28087;DHT22;15392;48.912;8.380;2023-12-28T11:41:32;14.50;58.40
28087;DHT22;15392;48.912;8.380;2023-12-28T11:44:26;14.50;58.30
28087;DHT22;15392;48.912;8.380;2023-12-28T11:47:20;14.50;58.50
28087;DHT22;15392;48.912;8.380;2023-12-28T11:50:07;14.50;58.50
28087;DHT22;15392;48.912;8.380;2023-12-28T11:52:54;14.50;58.30
28087;DHT22;15392;48.912;8.380;2023-12-28T11:55:40;14.50;58.30
28087;DHT22;15392;48.912;8.380;2023-12-28T11:58:26;14.50;58.20
28087;DHT22;15392;48.912;8.380;2023-12-28T12:01:12;14.50;58.00
28087;DHT22;15392;48.912;8.380;2023-12-28T12:03:58;14.50;58.00
28087;DHT22;15392;48.912;8.380;2023-12-28T12:06:45;14.50;57.80
28087;DHT22;15392;48.912;8.380;2023-12-28T12:09:32;14.50;57.80
28087;DHT22;15392;48.912;8.380;2023-12-28T12:12:20;14.50;57.80
28087;DHT22;15392;48.912;8.380;2023-12-28T12:15:06;14.50;57.80
28087;DHT22;15392;48.912;8.380;2023-12-28T12:17:53;14.50;57.90
28087;DHT22;15392;48.912;8.380;2023-12-28T12:20:39;14.40;57.90
28087;DHT22;15392;48.912;8.380;2023-12-28T12:23:25;14.40;57.90
28087;DHT22;15392;48.912;8.380;2023-12-28T12:26:11;14.40;57.90
28087;DHT22;15392;48.912;8.380;2023-12-28T12:29:02;14.40;57.80
28087;DHT22;15392;48.912;8.380;2023-12-28T12:31:49;14.40;57.80
28087;DHT22;15392;48.912;8.380;2023-12-28T12:34:35;14.40;57.90
28087;DHT22;15392;48.912;8.380;2023-12-28T12:37:21;14.40;57.90
28087;DHT22;15392;48.912;8.380;2023-12-28T12:40:08;14.40;57.90
28087;DHT22;15392;48.912;8.380;2023-12-28T12:42:54;14.40;57.90
28087;DHT22;15392;48.912;8.380;2023-12-28T12:45:40;14.30;57.90
28087;DHT22;15392;48.912;8.380;2023-12-28T12:48:26;14.40;58.10
28087;DHT22;15392;48.912;8.380;2023-12-28T12:51:12;14.30;58.10
28087;DHT22;15392;48.912;8.380;2023-12-28T12:53:59;14.30;58.10
28087;DHT22;15392;48.912;8.380;2023-12-28T12:56:47;14.30;58.20
28087;DHT22;15392;48.912;8.380;2023-12-28T12:59:33;14.30;58.40
28087;DHT22;15392;48.912;8.380;2023-12-28T13:02:24;14.30;58.40
28087;DHT22;15392;48.912;8.380;2023-12-28T13:05:13;14.30;58.40
28087;DHT22;15392;48.912;8.380;2023-12-28T13:07:59;14.30;59.20
28087;DHT22;15392;48.912;8.380;2023-12-28T13:10:45;14.20;58.60
28087;DHT22;15392;48.912;8.380;2023-12-28T13:13:31;14.20;58.70
28087;DHT22;15392;48.912;8.380;2023-12-28T13:16:17;14.20;59.00
28087;DHT22;15392;48.912;8.380;2023-12-28T13:19:03;14.20;59.10
28087;DHT22;15392;48.912;8.380;2023-12-28T13:21:49;14.10;59.00
28087;DHT22;15392;48.912;8.380;2023-12-28T13:24:35;14.20;59.00
28087;DHT22;15392;48.912;8.380;2023-12-28T13:27:21;14.20;59.40
28087;DHT22;15392;48.912;8.380;2023-12-28T13:30:08;14.20;59.40
28087;DHT22;15392;48.912;8.380;2023-12-28T13:32:55;14.20;59.40
28087;DHT22;15392;48.912;8.380;2023-12-28T13:35:44;14.20;59.20
28087;DHT22;15392;48.912;8.380;2023-12-28T13:38:30;14.20;59.50
28087;DHT22;15392;48.912;8.380;2023-12-28T13:41:16;14.20;59.30
28087;DHT22;15392;48.912;8.380;2023-12-28T13:44:03;14.20;59.50
28087;DHT22;15392;48.912;8.380;2023-12-28T13:46:49;14.20;59.40
28087;DHT22;15392;48.912;8.380;2023-12-28T13:49:36;14.20;59.30
28087;DHT22;15392;48.912;8.380;2023-12-28T13:52:22;14.20;59.50
28087;DHT22;15392;48.912;8.380;2023-12-28T13:55:08;14.20;59.40
28087;DHT22;15392;48.912;8.380;2023-12-28T13:57:54;14.10;59.40
28087;DHT22;15392;48.912;8.380;2023-12-28T14:00:40;14.20;59.50
28087;DHT22;15392;48.912;8.380;2023-12-28T14:03:26;14.20;59.30
28087;DHT22;15392;48.912;8.380;2023-12-28T14:06:12;14.20;59.30
28087;DHT22;15392;48.912;8.380;2023-12-28T14:08:58;14.20;59.30
28087;DHT22;15392;48.912;8.380;2023-12-28T14:11:44;14.20;59.20
28087;DHT22;15392;48.912;8.380;2023-12-28T14:14:33;14.20;59.10
28087;DHT22;15392;48.912;8.380;2023-12-28T14:17:20;14.20;59.00
28087;DHT22;15392;48.912;8.380;2023-12-28T14:20:07;14.20;59.10
28087;DHT22;15392;48.912;8.380;2023-12-28T14:22:57;14.20;59.00
28087;DHT22;15392;48.912;8.380;2023-12-28T14:25:44;14.20;58.90
28087;DHT22;15392;48.912;8.380;2023-12-28T14:28:30;14.20;58.80
28087;DHT22;15392;48.912;8.380;2023-12-28T14:31:19;14.20;58.80
28087;DHT22;15392;48.912;8.380;2023-12-28T14:34:06;14.20;58.70
28087;DHT22;15392;48.912;8.380;2023-12-28T14:36:53;14.20;58.70
28087;DHT22;15392;48.912;8.380;2023-12-28T14:39:39;14.20;58.70
28087;DHT22;15392;48.912;8.380;2023-12-28T14:42:25;14.20;58.70
28087;DHT22;15392;48.912;8.380;2023-12-28T14:45:11;14.20;58.60
28087;DHT22;15392;48.912;8.380;2023-12-28T14:47:57;14.30;58.70
28087;DHT22;15392;48.912;8.380;2023-12-28T14:50:43;14.30;58.70
28087;DHT22;15392;48.912;8.380;2023-12-28T14:53:30;14.30;58.60
28087;DHT22;15392;48.912;8.380;2023-12-28T14:56:16;14.30;58.60
28087;DHT22;15392;48.912;8.380;2023-12-28T14:59:02;14.40;58.60
28087;DHT22;15392;48.912;8.380;2023-12-28T15:01:49;14.40;58.60
28087;DHT22;15392;48.912;8.380;2023-12-28T15:04:35;14.40;58.60
28087;DHT22;15392;48.912;8.380;2023-12-28T15:07:23;14.40;58.50
28087;DHT22;15392;48.912;8.380;2023-12-28T15:10:10;14.40;58.50
28087;DHT22;15392;48.912;8.380;2023-12-28T15:12:57;14.40;58.50
28087;DHT22;15392;48.912;8.380;2023-12-28T15:15:44;14.40;58.50
28087;DHT22;15392;48.912;8.380;2023-12-28T15:18:31;14.40;58.40
28087;DHT22;15392;48.912;8.380;2023-12-28T15:21:17;14.50;58.40
28087;DHT22;15392;48.912;8.380;2023-12-28T15:24:04;14.50;58.40
28087;DHT22;15392;48.912;8.380;2023-12-28T15:26:51;14.50;58.50
28087;DHT22;15392;48.912;8.380;2023-12-28T15:29:37;14.50;58.30
28087;DHT22;15392;48.912;8.380;2023-12-28T15:32:23;14.50;58.30
28087;DHT22;15392;48.912;8.380;2023-12-28T15:35:13;14.50;58.20
28087;DHT22;15392;48.912;8.380;2023-12-28T15:38:03;14.50;58.20
28087;DHT22;15392;48.912;8.380;2023-12-28T15:40:49;14.50;58.10
28087;DHT22;15392;48.912;8.380;2023-12-28T15:43:35;14.50;58.10
28087;DHT22;15392;48.912;8.380;2023-12-28T15:46:21;14.60;58.20
28087;DHT22;15392;48.912;8.380;2023-12-28T15:49:07;14.60;58.70
28087;DHT22;15392;48.912;8.380;2023-12-28T15:51:54;14.60;58.10
28087;DHT22;15392;48.912;8.380;2023-12-28T15:54:40;14.60;58.00
28087;DHT22;15392;48.912;8.380;2023-12-28T15:57:26;14.60;58.00
28087;DHT22;15392;48.912;8.380;2023-12-28T16:00:12;14.60;57.90
28087;DHT22;15392;48.912;8.380;2023-12-28T16:02:59;14.60;57.80
28087;DHT22;15392;48.912;8.380;2023-12-28T16:05:45;14.60;57.80
28087;DHT22;15392;48.912;8.380;2023-12-28T16:08:31;14.70;57.80
28087;DHT22;15392;48.912;8.380;2023-12-28T16:11:17;14.70;57.70
28087;DHT22;15392;48.912;8.380;2023-12-28T16:14:03;14.70;57.80
28087;DHT22;15392;48.912;8.380;2023-12-28T16:16:50;14.70;57.70
28087;DHT22;15392;48.912;8.380;2023-12-28T16:19:37;14.70;57.60
28087;DHT22;15392;48.912;8.380;2023-12-28T16:22:24;14.70;57.60
28087;DHT22;15392;48.912;8.380;2023-12-28T16:25:11;14.70;57.50
28087;DHT22;15392;48.912;8.380;2023-12-28T16:27:57;14.70;57.50
28087;DHT22;15392;48.912;8.380;2023-12-28T16:30:44;14.70;57.40
28087;DHT22;15392;48.912;8.380;2023-12-28T16:33:30;14.70;57.50
28087;DHT22;15392;48.912;8.380;2023-12-28T16:36:16;14.80;57.50
28087;DHT22;15392;48.912;8.380;2023-12-28T16:39:02;14.80;57.50
28087;DHT22;15392;48.912;8.380;2023-12-28T16:41:48;14.80;57.50
28087;DHT22;15392;48.912;8.380;2023-12-28T16:44:34;14.80;57.50
28087;DHT22;15392;48.912;8.380;2023-12-28T16:47:20;14.80;57.40
28087;DHT22;15392;48.912;8.380;2023-12-28T16:50:06;14.80;57.40
28087;DHT22;15392;48.912;8.380;2023-12-28T16:52:53;14.80;57.40
28087;DHT22;15392;48.912;8.380;2023-12-28T16:55:42;14.80;57.40
28087;DHT22;15392;48.912;8.380;2023-12-28T16:58:28;14.80;57.40
28087;DHT22;15392;48.912;8.380;2023-12-28T17:01:14;14.80;57.40
28087;DHT22;15392;48.912;8.380;2023-12-28T17:04:00;14.80;57.50
28087;DHT22;15392;48.912;8.380;2023-12-28T17:06:46;14.90;57.50
28087;DHT22;15392;48.912;8.380;2023-12-28T17:09:32;14.80;57.40
28087;DHT22;15392;48.912;8.380;2023-12-28T17:12:35;14.80;57.40
28087;DHT22;15392;48.912;8.380;2023-12-28T17:15:24;14.90;57.50
28087;DHT22;15392;48.912;8.380;2023-12-28T17:18:11;14.80;57.40
28087;DHT22;15392;48.912;8.380;2023-12-28T17:20:58;14.80;57.50
28087;DHT22;15392;48.912;8.380;2023-12-28T17:23:47;14.90;57.50
28087;DHT22;15392;48.912;8.380;2023-12-28T17:26:36;14.80;57.50
28087;DHT22;15392;48.912;8.380;2023-12-28T17:29:26;14.80;57.50
28087;DHT22;15392;48.912;8.380;2023-12-28T17:32:15;14.80;57.50
28087;DHT22;15392;48.912;8.380;2023-12-28T17:35:02;14.80;57.50
28087;DHT22;15392;48.912;8.380;2023-12-28T17:37:48;14.90;57.60
28087;DHT22;15392;48.912;8.380;2023-12-28T17:40:35;14.90;57.60